createdAt,value
2019-03-25T00:02:48.413Z,4.21
2019-03-25T00:07:56.149Z,4.59
2019-03-25T00:13:03.777Z,4.50
2019-03-25T00:18:11.441Z,4.11
2019-03-25T00:23:19.027Z,5.22
2019-03-25T00:28:26.701Z,4.23
2019-03-25T00:33:34.311Z,4.31
2019-03-25T00:38:42.005Z,4.06
2019-03-25T00:43:49.587Z,4.40
2019-03-25T00:48:57.241Z,4.17
2019-03-25T00:54:04.829Z,4.33
2019-03-25T00:59:12.541Z,3.89
2019-03-25T01:04:20.180Z,4.12
2019-03-25T01:09:27.820Z,4.21
2019-03-25T01:14:35.411Z,4.21
2019-03-25T01:19:43.032Z,4.50
2019-03-25T01:25:01.149Z,4.60
2019-03-25T01:29:57.899Z,4.17
2019-03-25T01:35:05.528Z,4.81
2019-03-25T01:40:13.211Z,4.30
2019-03-25T01:45:20.826Z,4.45
2019-03-25T01:50:28.530Z,4.51
2019-03-25T01:55:36.137Z,5.19
2019-03-25T02:00:43.787Z,4.71
2019-03-25T02:05:51.393Z,5.04
2019-03-25T02:10:59.098Z,5.29
2019-03-25T02:16:06.683Z,5.66
2019-03-25T02:21:14.385Z,5.72
2019-03-25T02:26:22.011Z,5.92
2019-03-25T02:31:29.676Z,5.51
2019-03-25T02:36:37.305Z,5.50
2019-03-25T02:41:44.941Z,5.43
2019-03-25T02:46:52.573Z,6.10
2019-03-25T02:52:00.240Z,5.81
2019-03-25T02:57:07.838Z,5.71
2019-03-25T03:02:15.485Z,5.71
2019-03-25T03:07:23.089Z,5.93
2019-03-25T03:12:30.792Z,5.81
2019-03-25T03:17:38.385Z,5.48
2019-03-25T03:22:46.086Z,5.57
2019-03-25T03:27:53.717Z,5.63
2019-03-25T03:33:01.356Z,5.54
2019-03-25T03:38:08.946Z,5.78
2019-03-25T03:43:16.583Z,5.64
2019-03-25T03:48:24.175Z,5.98
2019-03-25T03:53:31.886Z,5.31
2019-03-25T03:58:39.478Z,4.80
2019-03-25T04:03:47.117Z,4.80
2019-03-25T04:08:54.706Z,4.78
2019-03-25T04:14:02.404Z,4.46
2019-03-25T04:19:09.844Z,3.95
2019-03-25T04:24:17.512Z,5.17
2019-03-25T04:29:25.166Z,4.65
2019-03-25T04:34:32.774Z,4.94
2019-03-25T04:39:40.360Z,5.57
2019-03-25T04:44:47.974Z,5.07
2019-03-25T04:49:55.617Z,4.64
2019-03-25T04:55:03.279Z,5.19
2019-03-25T05:00:10.905Z,5.36
2019-03-25T05:05:18.555Z,4.28
2019-03-25T05:10:26.119Z,5.19
2019-03-25T05:15:33.770Z,4.67
2019-03-25T05:20:41.404Z,4.58
2019-03-25T05:25:49.097Z,4.33
2019-03-25T05:30:56.695Z,4.04
2019-03-25T05:36:04.512Z,3.67
2019-03-25T05:41:12.142Z,3.91
2019-03-25T05:46:19.785Z,3.53
2019-03-25T05:51:27.373Z,3.95
2019-03-25T05:56:35.085Z,4.44
2019-03-25T06:01:44.190Z,3.70
2019-03-25T06:06:52.058Z,4.69
2019-03-25T06:11:57.119Z,4.08
2019-03-25T06:17:04.808Z,4.00
2019-03-25T06:22:12.409Z,4.18
2019-03-25T06:27:20.053Z,4.67
2019-03-25T06:32:27.653Z,4.17
2019-03-25T06:37:35.285Z,3.42
2019-03-25T06:42:42.910Z,3.79
2019-03-25T06:47:50.565Z,3.91
2019-03-25T06:52:58.159Z,3.73
2019-03-25T06:58:05.900Z,3.67
2019-03-25T07:03:13.511Z,3.86
2019-03-25T07:08:21.195Z,4.14
2019-03-25T07:13:28.794Z,4.46
2019-03-25T07:18:36.423Z,4.49
2019-03-25T07:23:44.008Z,4.43
2019-03-25T07:28:51.647Z,4.31
2019-03-25T07:33:59.241Z,4.46
2019-03-25T07:39:06.891Z,4.10
2019-03-25T07:44:14.517Z,3.78
2019-03-25T07:49:22.148Z,4.60
2019-03-25T07:54:29.776Z,4.21
2019-03-25T07:59:37.454Z,3.73
2019-03-25T08:04:45.050Z,3.52
2019-03-25T08:09:52.762Z,3.74
2019-03-25T08:15:00.446Z,3.81
2019-03-25T08:20:08.097Z,4.00
2019-03-25T08:25:15.733Z,3.87
2019-03-25T08:30:23.427Z,3.75
2019-03-25T08:35:31.031Z,3.49
2019-03-25T08:40:38.725Z,2.63
2019-03-25T08:45:46.346Z,2.97
2019-03-25T08:50:54.121Z,2.99
2019-03-25T08:56:01.725Z,3.02
2019-03-25T09:01:09.405Z,3.25
2019-03-25T09:06:17.009Z,2.90
2019-03-25T09:11:24.722Z,3.37
2019-03-25T09:16:32.349Z,2.46
2019-03-25T09:21:39.987Z,2.24
2019-03-25T09:26:47.605Z,1.99
2019-03-25T09:31:55.311Z,2.35
2019-03-25T09:37:02.903Z,2.49
2019-03-25T09:42:10.595Z,2.39
2019-03-25T09:47:18.243Z,2.68
2019-03-25T09:52:37.917Z,2.31
2019-03-25T09:57:33.078Z,2.58
2019-03-25T10:02:40.694Z,2.95
2019-03-25T10:07:48.299Z,3.43
2019-03-25T10:12:56.899Z,3.01
2019-03-25T10:18:03.079Z,3.86
2019-03-25T10:23:10.740Z,3.50
2019-03-25T10:28:18.355Z,2.73
2019-03-25T10:33:26.065Z,3.00
2019-03-25T10:38:33.711Z,2.61
2019-03-25T10:43:41.335Z,2.66
2019-03-25T10:48:48.923Z,2.39
2019-03-25T10:53:56.641Z,2.37
2019-03-25T10:59:04.254Z,2.43
2019-03-25T11:04:12.013Z,2.20
2019-03-25T11:09:19.636Z,2.49
2019-03-25T11:14:27.306Z,2.26
2019-03-25T11:19:34.931Z,2.28
2019-03-25T11:24:42.576Z,2.58
2019-03-25T11:29:50.186Z,2.46
2019-03-25T11:34:57.835Z,2.03
2019-03-25T11:40:05.445Z,2.48
2019-03-25T11:45:13.076Z,2.71
2019-03-25T11:50:20.659Z,2.55
2019-03-25T11:55:28.351Z,2.82
2019-03-25T12:00:35.978Z,2.70
2019-03-25T12:05:43.762Z,2.53
2019-03-25T12:10:51.384Z,2.22
2019-03-25T12:15:59.156Z,2.67
2019-03-25T12:21:06.787Z,2.02
2019-03-25T12:26:14.490Z,2.29
2019-03-25T12:31:22.066Z,7.77
2019-03-25T12:36:29.719Z,2.22
2019-03-25T12:41:37.298Z,2.55
2019-03-25T12:46:44.952Z,2.30
2019-03-25T12:51:52.557Z,2.22
2019-03-25T12:57:00.228Z,2.50
2019-03-25T13:02:07.829Z,2.95
2019-03-25T13:07:15.500Z,2.34
2019-03-25T13:12:23.118Z,2.48
2019-03-25T13:17:30.720Z,2.60
2019-03-25T13:22:38.317Z,2.26
2019-03-25T13:27:46.168Z,2.56
2019-03-25T13:32:53.780Z,2.51
2019-03-25T13:38:01.422Z,2.22
2019-03-25T13:43:09.009Z,2.42
2019-03-25T13:48:16.673Z,2.52
2019-03-25T13:53:24.262Z,2.90
2019-03-25T13:58:31.947Z,2.84
2019-03-25T14:03:39.559Z,1.96
2019-03-25T14:08:47.300Z,2.39
2019-03-25T14:13:54.918Z,2.47
2019-03-25T14:19:02.573Z,2.80
2019-03-25T14:24:10.041Z,2.20
2019-03-25T14:29:17.697Z,2.12
2019-03-25T14:34:25.309Z,2.43
2019-03-25T14:39:32.947Z,1.97
2019-03-25T14:44:40.597Z,2.78
2019-03-25T14:49:48.441Z,3.18
2019-03-25T14:54:56.070Z,2.99
2019-03-25T15:00:03.842Z,3.52
2019-03-25T15:05:11.427Z,3.21
2019-03-25T15:10:19.090Z,2.44
2019-03-25T15:15:26.684Z,2.94
2019-03-25T15:20:34.367Z,2.87
2019-03-25T15:25:41.974Z,3.01
2019-03-25T15:30:49.637Z,2.69
2019-03-25T15:35:57.222Z,2.78
2019-03-25T15:41:05.050Z,2.81
2019-03-25T15:46:12.692Z,2.29
2019-03-25T15:51:20.394Z,3.01
2019-03-25T15:56:27.996Z,2.84
2019-03-25T16:01:35.652Z,2.69
2019-03-25T16:06:43.265Z,2.75
2019-03-25T16:11:50.959Z,3.21
2019-03-25T16:16:58.597Z,3.02
2019-03-25T16:22:06.280Z,2.77
2019-03-25T16:27:13.881Z,2.95
2019-03-25T16:32:21.545Z,2.56
2019-03-25T16:37:29.163Z,2.34
2019-03-25T16:42:36.837Z,2.12
2019-03-25T16:47:44.494Z,2.54
2019-03-25T16:52:52.285Z,2.72
2019-03-25T16:57:59.933Z,2.61
2019-03-25T17:03:07.629Z,2.86
2019-03-25T17:08:15.232Z,2.75
2019-03-25T17:13:23.001Z,2.66
2019-03-25T17:18:30.661Z,2.19
2019-03-25T17:23:38.316Z,2.61
2019-03-25T17:28:45.960Z,2.68
2019-03-25T17:33:53.651Z,2.82
2019-03-25T17:39:01.314Z,2.43
2019-03-25T17:44:08.993Z,2.58
2019-03-25T17:49:16.644Z,2.45
2019-03-25T17:54:24.327Z,2.45
2019-03-25T17:59:31.981Z,2.70
2019-03-25T18:04:39.785Z,2.29
2019-03-25T18:09:47.380Z,2.62
2019-03-25T18:14:55.053Z,3.12
2019-03-25T18:20:02.651Z,2.85
2019-03-25T18:25:10.386Z,2.83
2019-03-25T18:30:18.237Z,2.67
2019-03-25T18:35:25.928Z,2.87
2019-03-25T18:40:33.531Z,2.83
2019-03-25T18:45:41.170Z,3.04
2019-03-25T18:50:48.791Z,2.82
2019-03-25T18:55:56.464Z,3.21
2019-03-25T19:01:04.062Z,2.34
2019-03-25T19:06:11.737Z,2.72
2019-03-25T19:11:30.399Z,2.83
2019-03-25T19:16:26.573Z,2.61
2019-03-25T19:21:34.191Z,2.44
2019-03-25T19:26:41.923Z,2.82
2019-03-25T19:31:49.565Z,2.58
2019-03-25T19:36:57.231Z,3.34
2019-03-25T19:42:04.895Z,2.84
2019-03-25T19:47:12.605Z,2.63
2019-03-25T19:52:20.321Z,2.93
2019-03-25T19:57:28.418Z,2.86
2019-03-25T20:02:35.460Z,3.28
2019-03-25T20:07:43.437Z,3.01
2019-03-25T20:12:51.164Z,3.15
2019-03-25T20:17:58.960Z,2.98
2019-03-25T20:23:06.730Z,3.38
2019-03-25T20:28:14.661Z,2.99
2019-03-25T20:33:22.365Z,3.23
2019-03-25T20:38:30.083Z,3.46
2019-03-25T20:43:37.589Z,3.73
2019-03-25T20:48:45.295Z,3.00
2019-03-25T20:53:53.213Z,3.27
2019-03-25T20:59:01.081Z,3.25
2019-03-25T21:04:08.796Z,3.30
2019-03-25T21:09:16.663Z,3.23
2019-03-25T21:14:24.297Z,3.09
2019-03-25T21:19:32.028Z,3.37
2019-03-25T21:24:39.621Z,3.52
2019-03-25T21:29:47.330Z,3.15
2019-03-25T21:34:54.983Z,3.08
2019-03-25T21:40:02.622Z,3.24
2019-03-25T21:45:10.317Z,2.72
2019-03-25T21:50:17.999Z,3.30
2019-03-25T21:55:25.598Z,3.31
2019-03-25T22:00:33.258Z,3.53
2019-03-25T22:05:40.863Z,3.22
2019-03-25T22:10:48.522Z,3.60
2019-03-25T22:15:56.120Z,3.21
2019-03-25T22:21:03.822Z,3.32
2019-03-25T22:26:11.423Z,3.43
2019-03-25T22:31:19.422Z,3.61
2019-03-25T22:36:27.043Z,3.67
2019-03-25T22:41:35.154Z,3.39
2019-03-25T22:46:41.637Z,3.24
2019-03-25T22:51:49.251Z,3.37
2019-03-25T22:56:56.845Z,3.60
2019-03-25T23:02:04.533Z,3.72
2019-03-25T23:07:12.125Z,3.32
2019-03-25T23:12:19.823Z,3.31
2019-03-25T23:17:27.449Z,3.54
2019-03-25T23:22:35.119Z,3.22
2019-03-25T23:27:42.735Z,3.50
2019-03-25T23:32:50.378Z,3.46
2019-03-25T23:37:57.995Z,3.56
2019-03-25T23:43:05.687Z,3.59
2019-03-25T23:48:13.270Z,3.36
2019-03-25T23:53:20.946Z,3.24
2019-03-25T23:58:28.532Z,3.34
